Latest Weather Observations for Ballarat

IDV60801

Issued at 9:02 am EST Sunday 19 September 2021 (issued every 10 minutes, with the page automatically refreshed every 10 minutes)

About weather observations | Map of weather stations | Latest weather observations for VIC | Other Formats
Station Details ID: 089002 Name: BALLARAT AERODROME Lat: -37.51 Lon: 143.79 Height: 435.2 m
Data from the previous 72 hours. | See also: Recent months at Ballarat
Date/Time
EST
Temp
°C
App
Temp
°C
Dew
Point
°C
Rel
Hum
%
Delta-T
°C
Wind Press
QNH
hPa
Press
MSL
hPa
Rain since
9am
mm
Dir  Spd
km/h
Gust
km/h
Spd
kts
Gust
kts
19/09:00am 7.8 1.5 5.9 88 0.9 NNW 28 35 15 19 1017.0 1017.3 0.8
19/08:55am 7.5 1.2 5.8 89 0.8 NNW 28 35 15 19 1017.1 1017.4 0.8
19/08:45am 7.0 0.6 5.3 89 0.8 N 28 39 15 21 1017.2 1017.5 0.8
19/08:31am 6.5 0.5 5.1 91 0.6 N 26 37 14 20 1017.2 1017.5 0.8
19/08:30am 6.5 0.1 5.3 92 0.5 N 28 37 15 20 1017.2 1017.5 0.8
19/08:00am 6.0 -0.9 4.8 92 0.5 N 30 35 16 19 1017.0 1017.3 0.8
19/07:30am 5.4 -1.2 4.4 93 0.4 N 28 35 15 19 1016.9 1017.2 0.8
19/07:00am 5.4 -1.1 4.7 95 0.3 N 28 41 15 22 1016.7 1017.0 0.8
19/06:30am 5.1 -0.7 4.2 94 0.4 NNW 24 30 13 16 1017.2 1017.5 0.8
19/06:00am 5.2 0.1 4.3 94 0.4 NNW 20 28 11 15 1017.0 1017.3 0.8
19/05:35am 5.2 0.3 4.3 94 0.4 N 19 22 10 12 1017.2 1017.5 0.8
19/05:30am 5.1 0.2 4.2 94 0.4 N 19 22 10 12 1017.2 1017.5 0.8
19/05:13am 5.2 -0.3 4.2 93 0.4 N 22 26 12 14 1016.6 1016.9 0.8
19/05:00am 4.5 -1.1 3.6 94 0.4 N 22 26 12 14 1016.8 1017.1 0.8
19/04:30am 4.9 -0.3 3.6 91 0.6 N 20 26 11 14 1016.7 1017.0 0.8
19/04:00am 5.9 0.8 4.1 88 0.8 N 20 26 11 14 1016.6 1016.9 0.8
19/03:30am 5.5 -0.1 3.7 88 0.8 N 22 28 12 15 1016.8 1017.1 0.8
19/03:00am 5.6 -0.4 3.4 86 0.9 N 24 30 13 16 1016.8 1017.1 0.8
19/02:30am 6.6 0.6 3.6 81 1.3 N 24 32 13 17 1017.0 1017.3 0.8
19/02:00am 6.3 0.7 3.5 82 1.2 N 22 28 12 15 1017.6 1018.0 0.8
19/01:30am 5.6 0.9 3.3 85 1.0 N 17 20 9 11 1017.7 1018.1 0.8
19/01:00am 5.6 -0.2 2.4 80 1.3 N 22 28 12 15 1017.8 1018.2 0.8
19/12:30am 4.8 -0.6 2.2 83 1.1 NNW 20 30 11 16 1018.3 1018.6 0.8
19/12:00am 4.6 -0.8 2.3 85 0.9 N 20 22 11 12 1018.4 1018.7 0.8
 
Date/Time
EST
Temp
°C
App
Temp
°C
Dew
Point
°C
Rel
Hum
%
Delta-T
°C
Wind Press
QNH
hPa
Press
MSL
hPa
Rain since
9am
mm
Dir  Spd
km/h
Gust
km/h
Spd
kts
Gust
kts
18/11:30pm 3.1 -1.9 1.3 88 0.7 N 17 20 9 11 1018.7 1019.0 0.8
18/11:00pm 2.5 -2.2 0.6 87 0.7 NNW 15 19 8 10 1018.8 1019.1 0.8
18/10:30pm 3.0 -1.3 0.7 85 0.9 NNW 13 15 7 8 1018.9 1019.2 0.8
18/10:00pm 4.0 0.5 1.2 82 1.1 WNW 9 11 5 6 1019.0 1019.3 0.8
18/09:30pm 4.6 1.5 1.5 80 1.3 NW 7 9 4 5 1018.7 1019.0 0.8
18/09:00pm 4.4 2.3 1.9 84 1.0 WSW 2 7 1 4 1018.6 1018.9 0.8
18/08:30pm 4.5 0.0 2.2 85 0.9 NNW 15 17 8 9 1018.4 1018.7 0.8
18/08:00pm 5.2 2.0 3.2 87 0.8 NNW 9 11 5 6 1017.9 1018.3 0.8
18/07:30pm 5.3 2.2 3.6 89 0.7 NNW 9 13 5 7 1017.9 1018.3 0.8
18/07:00pm 7.1 3.0 4.6 84 1.1 WNW 15 19 8 10 1017.6 1018.0 0.8
18/06:30pm 7.2 3.9 4.5 83 1.2 WSW 11 15 6 8 1017.1 1017.4 0.8
18/06:00pm 7.9 3.5 4.7 80 1.4 WSW 17 24 9 13 1016.6 1016.9 0.8
18/05:30pm 8.9 3.2 4.9 76 1.8 WSW 24 39 13 21 1016.3 1016.6 0.8
18/05:00pm 9.6 4.2 4.6 71 2.3 WSW 22 32 12 17 1015.9 1016.2 0.6
18/04:30pm 10.4 5.6 5.8 73 2.2 W 20 28 11 15 1015.5 1015.9 0.6
18/04:00pm 9.0 2.4 6.1 82 1.4 WSW 30 43 16 23 1015.5 1015.9 0.6
18/03:30pm 9.8 2.6 5.2 73 2.1 W 32 43 17 23 1014.9 1015.2 0.4
18/03:00pm 10.9 3.3 3.9 62 3.2 W 33 48 18 26 1014.5 1014.8 0.4
18/02:30pm 10.9 1.1 2.5 56 3.7 W 43 54 23 29 1014.4 1014.7 0.4
18/02:18pm 11.0 2.1 2.8 57 3.6 W 39 61 21 33 1014.2 1014.5 0.4
18/02:00pm 11.4 2.5 2.9 56 3.8 W 39 50 21 27 1014.3 1014.6 0.4
18/01:39pm 11.2 4.5 3.5 59 3.5 W 28 46 15 25 1014.3 1014.6 0.4
18/01:30pm 10.6 3.6 4.1 64 3.0 W 30 39 16 21 1014.4 1014.7 0.4
18/01:00pm 9.3 2.3 6.2 81 1.5 WSW 32 44 17 24 1014.8 1015.1 0.4
18/12:30pm 10.3 2.9 4.2 66 2.8 W 32 44 17 24 1014.3 1014.6 0.2
18/12:10pm 10.9 3.3 3.7 61 3.3 W 33 52 18 28 1014.2 1014.5 0.2
18/12:00pm 10.7 2.4 4.4 65 2.9 W 37 48 20 26 1014.3 1014.6 0.2
18/11:35am 7.9 0.6 4.7 80 1.4 WSW 32 50 17 27 1014.6 1014.9 0.2
18/11:30am 7.7 -0.3 5.5 86 1.0 WSW 37 57 20 31 1014.6 1014.9 0.2
18/11:23am 8.4 -0.2 2.6 67 2.5 W 37 57 20 31 1014.5 1014.8 0.0
18/11:18am 10.4 3.0 2.0 56 3.6 W 30 50 16 27 1014.0 1014.3 0.0
18/11:00am 11.0 2.7 2.3 55 3.8 W 35 44 19 24 1014.0 1014.3 0.0
18/10:30am 10.4 1.8 2.5 58 3.5 W 37 50 20 27 1013.8 1014.1 0.0
18/10:00am 10.8 2.2 2.6 57 3.6 W 37 56 20 30 1013.8 1014.1 0.0
18/09:58am 10.6 2.0 2.4 57 3.6 W 37 56 20 30 1013.7 1014.0 0.0
18/09:30am 9.9 3.0 2.7 61 3.2 WNW 28 37 15 20 1013.4 1013.6 0.0
18/09:00am 10.1 3.1 4.3 67 2.6 WNW 30 37 16 20 1013.1 1013.4 0.4
18/08:30am 9.0 4.4 5.6 79 1.6 NW 19 26 10 14 1013.0 1013.3 0.4
18/08:00am 8.5 4.4 6.0 84 1.2 NW 17 22 9 12 1012.8 1013.1 0.4
18/07:30am 7.5 3.2 5.1 85 1.1 NNW 17 19 9 10 1012.6 1012.9 0.4
18/07:00am 7.5 3.1 4.5 81 1.3 NW 17 24 9 13 1012.1 1012.4 0.4
18/06:30am 6.6 2.1 4.3 85 1.0 NW 17 33 9 18 1011.6 1011.8 0.4
18/06:00am 7.0 2.5 4.3 83 1.2 NW 17 24 9 13 1011.2 1011.4 0.4
18/05:30am 6.5 2.8 4.3 86 1.0 NNW 13 20 7 11 1010.9 1011.1 0.4
18/05:00am 6.5 1.9 3.8 83 1.2 NNW 17 20 9 11 1010.2 1010.5 0.4
18/04:30am 7.1 3.4 4.4 83 1.2 NNW 13 19 7 10 1010.0 1010.3 0.4
18/04:00am 7.6 4.0 5.1 84 1.1 NNW 13 17 7 9 1009.7 1010.0 0.4
18/03:30am 8.5 4.4 6.0 84 1.2 NNW 17 26 9 14 1009.5 1009.7 0.4
18/03:00am 9.4 4.5 6.7 83 1.3 WNW 22 32 12 17 1009.4 1009.6 0.4
18/02:30am 9.5 4.3 7.4 87 1.0 NNW 24 30 13 16 1009.2 1009.4 0.4
18/02:00am 9.1 3.8 6.9 86 1.1 NNW 24 28 13 15 1009.4 1009.6 0.4
18/01:30am 8.4 4.0 6.4 87 0.9 NW 19 26 10 14 1009.5 1009.7 0.4
18/01:00am 7.4 3.0 6.5 94 0.4 N 19 22 10 12 1009.5 1009.7 0.4
18/12:30am 8.0 4.1 7.2 95 0.4 N 17 19 9 10 1009.4 1009.6 0.4
18/12:00am 8.7 6.1 7.9 95 0.4 N 11 13 6 7 1009.4 1009.6 0.4
 
Date/Time
EST
Temp
°C
App
Temp
°C
Dew
Point
°C
Rel
Hum
%
Delta-T
°C
Wind Press
QNH
hPa
Press
MSL
hPa
Rain since
9am
mm
Dir  Spd
km/h
Gust
km/h
Spd
kts
Gust
kts
17/11:30pm 9.2 7.5 8.3 94 0.4 NNE 7 9 4 5 1009.6 1009.8 0.4
17/11:00pm 9.7 7.7 8.6 93 0.6 NNE 9 13 5 7 1009.9 1010.2 0.4
17/10:30pm 9.9 7.9 8.5 91 0.7 NW 9 13 5 7 1010.1 1010.4 0.4
17/10:00pm 10.4 6.9 8.7 89 0.9 W 17 26 9 14 1010.3 1010.6 0.4
17/09:30pm 12.5 7.2 9.9 84 1.4 N 28 33 15 18 1009.2 1009.4 0.0
17/09:00pm 13.0 6.8 9.3 78 1.9 N 32 43 17 23 1008.9 1009.1 0.0
17/08:30pm 13.4 6.9 9.1 75 2.2 N 33 43 18 23 1008.4 1008.6 0.0
17/08:00pm 14.0 7.4 8.4 69 2.9 N 33 44 18 24 1008.1 1008.4 0.0
17/07:30pm 13.9 7.5 8.5 70 2.8 N 32 41 17 22 1008.4 1008.6 0.0
17/07:00pm 14.2 7.6 8.6 69 2.9 N 33 43 18 23 1008.0 1008.3 0.0
17/06:30pm 14.2 7.6 8.6 69 2.9 N 33 46 18 25 1008.1 1008.4 0.0
17/06:00pm 14.5 8.1 8.5 67 3.1 N 32 46 17 25 1007.8 1008.1 0.0
17/05:30pm 15.1 8.4 8.1 63 3.6 N 33 43 18 23 1007.6 1007.8 0.0
17/05:04pm 15.8 7.8 7.6 58 4.2 N 39 57 21 31 1007.4 1007.6 0.0
17/05:00pm 15.9 7.6 7.7 58 4.2 N 41 54 22 29 1007.3 1007.5 0.0
17/04:30pm 16.8 6.7 7.2 53 4.9 N 50 69 27 37 1006.8 1007.0 0.0
17/04:00pm 17.7 7.7 7.7 52 5.2 N 50 70 27 38 1006.6 1006.8 0.0
17/03:30pm 18.0 8.0 7.7 51 5.3 N 50 69 27 37 1007.1 1007.3 0.0
17/03:00pm 17.3 6.8 7.4 52 5.1 N 52 74 28 40 1007.0 1007.2 0.0
17/02:30pm 17.3 5.9 7.6 53 5.0 NNE 57 78 31 42 1007.1 1007.3 0.0
17/02:11pm 17.1 5.4 7.7 54 4.8 NNE 59 78 32 42 1007.9 1008.2 0.0
17/02:00pm 17.0 5.6 6.8 51 5.2 N 56 74 30 40 1008.1 1008.4 0.0
17/01:56pm 17.1 6.5 6.9 51 5.2 N 52 74 28 40 1008.2 1008.5 0.0
17/01:41pm 17.0 7.6 7.1 52 5.0 N 46 69 25 37 1008.7 1008.9 0.0
17/01:30pm 16.6 6.4 7.0 53 4.9 N 50 67 27 36 1008.9 1009.1 0.0
17/01:02pm 15.3 5.9 7.1 58 4.1 N 46 65 25 35 1009.9 1010.2 0.0
17/01:00pm 14.9 5.0 6.5 57 4.2 N 48 65 26 35 1009.8 1010.1 0.0
17/12:30pm 14.5 4.2 6.3 58 4.0 N 50 63 27 34 1010.7 1011.0 0.0
17/12:00pm 14.6 4.7 6.4 58 4.1 N 48 69 26 37 1011.5 1011.7 0.0
17/11:31am 15.5 5.1 6.0 53 4.7 N 50 69 27 37 1011.4 1011.6 0.0
17/11:30am 15.5 5.5 6.0 53 4.7 N 48 65 26 35 1011.5 1011.7 0.0
17/11:25am 14.7 5.0 6.0 56 4.3 N 46 65 25 35 1011.5 1011.7 0.0
17/11:00am 13.5 3.0 5.4 58 3.9 NNE 50 61 27 33 1010.9 1011.1 0.0
17/10:36am 13.8 4.5 5.2 56 4.1 NNE 43 61 23 33 1011.4 1011.6 0.0
17/10:30am 14.0 5.2 5.6 57 4.1 NNE 41 56 22 30 1011.4 1011.6 0.0
17/10:00am 12.4 3.1 5.1 61 3.5 NNE 43 61 23 33 1012.0 1012.3 0.0
17/09:35am 12.2 2.7 4.9 61 3.4 NNE 44 63 24 34 1012.5 1012.8 0.0
17/09:30am 13.0 3.7 5.7 61 3.5 NNE 44 57 24 31 1012.8 1013.1 0.0
17/09:02am 10.7 1.7 4.6 66 2.8 N 41 61 22 33 1013.5 1013.7 0.0
17/09:00am 10.7 1.7 4.6 66 2.8 N 41 54 22 29 1013.7 1014.0 0.0
17/08:43am 10.4 2.5 4.5 67 2.7 N 35 56 19 30 1014.3 1014.6 0.0
17/08:30am 10.3 4.0 5.5 72 2.3 N 28 41 15 22 1014.9 1015.2 0.0
17/08:14am 9.1 1.2 4.5 73 2.1 N 35 54 19 29 1014.8 1015.1 0.0
17/08:00am 9.6 1.8 4.8 72 2.2 N 35 46 19 25 1015.0 1015.3 0.0
17/07:30am 8.9 1.7 4.9 76 1.8 N 32 41 17 22 1015.0 1015.3 0.0
17/07:00am 8.4 1.0 4.2 75 1.9 N 32 41 17 22 1014.7 1015.0 0.0
17/06:30am 8.6 2.4 4.4 75 1.9 N 26 33 14 18 1014.5 1014.8 0.0
17/06:00am 8.6 1.7 4.4 75 1.9 N 30 37 16 20 1014.9 1015.2 0.0
17/05:30am 9.5 2.9 4.3 70 2.4 NNE 28 37 15 20 1014.4 1014.7 0.0
17/05:00am 9.0 1.7 4.4 73 2.1 NNE 32 43 17 23 1014.2 1014.5 0.0
17/04:30am 8.6 3.5 4.2 74 2.0 NNE 20 32 11 17 1014.9 1015.2 0.0
17/04:00am 8.4 2.5 3.8 73 2.0 NNE 24 32 13 17 1015.4 1015.7 0.0
17/03:30am 7.9 2.0 3.8 75 1.8 NNE 24 33 13 18 1015.7 1016.0 0.0
17/03:00am 7.5 1.2 3.6 76 1.7 NNE 26 32 14 17 1016.4 1016.7 0.0
17/02:30am 7.2 0.8 3.3 76 1.7 NNE 26 32 14 17 1016.9 1017.2 0.0
17/02:00am 7.3 1.3 3.2 75 1.8 NNE 24 30 13 16 1017.3 1017.6 0.0
17/01:30am 7.2 1.6 3.3 76 1.7 NNE 22 26 12 14 1017.9 1018.3 0.0
17/01:00am 7.0 2.0 3.4 78 1.6 NNE 19 24 10 13 1018.3 1018.6 0.0
17/12:30am 7.1 2.5 3.5 78 1.6 NNE 17 24 9 13 1018.4 1018.7 0.0
17/12:00am 6.9 1.8 3.3 78 1.6 NNE 19 22 10 12 1018.5 1018.8 0.0
 
Date/Time
EST
Temp
°C
App
Temp
°C
Dew
Point
°C
Rel
Hum
%
Delta-T
°C
Wind Press
QNH
hPa
Press
MSL
hPa
Rain since
9am
mm
Dir  Spd
km/h
Gust
km/h
Spd
kts
Gust
kts
16/11:30pm 6.6 1.9 3.4 80 1.4 NNE 17 19 9 10 1018.8 1019.1 0.0
16/11:00pm 5.3 1.7 2.8 84 1.1 N 11 13 6 7 1019.1 1019.4 0.0
16/10:30pm 5.7 1.7 2.7 81 1.3 NE 13 15 7 8 1019.3 1019.6 0.0
16/10:00pm 5.8 2.2 2.8 81 1.3 ENE 11 13 6 7 1019.2 1019.5 0.0
16/09:30pm 6.1 2.1 3.1 81 1.3 ENE 13 15 7 8 1019.3 1019.6 0.0
16/09:00pm 6.4 2.5 3.4 81 1.3 ENE 13 15 7 8 1019.5 1019.9 0.0
16/08:30pm 6.1 2.1 3.1 81 1.3 ENE 13 13 7 7 1019.6 1020.0 0.0
16/08:00pm 6.2 3.0 3.2 81 1.3 NE 9 11 5 6 1019.9 1020.3 0.0
16/07:30pm 7.6 4.5 3.5 75 1.8 NE 9 11 5 6 1019.9 1020.3 0.0
16/07:00pm 7.9 4.4 3.6 74 1.9 NE 11 13 6 7 1019.5 1019.9 0.0
16/06:30pm 9.3 5.6 4.3 71 2.3 N 13 13 7 7 1019.5 1019.9 0.0
16/06:00pm 10.3 7.0 4.5 67 2.7 NNW 11 15 6 8 1019.3 1019.6 0.0
16/05:30pm 12.1 8.8 4.6 60 3.5 N 11 15 6 8 1019.0 1019.3 0.0
16/05:00pm 12.7 8.2 4.4 57 3.9 N 17 22 9 12 1019.0 1019.3 0.0
16/04:30pm 13.2 9.8 3.8 53 4.4 NNE 11 15 6 8 1019.0 1019.3 0.0
16/04:00pm 12.4 8.1 3.1 53 4.2 N 15 24 8 13 1019.3 1019.6 0.0
16/03:30pm 13.8 9.5 3.3 49 4.8 NNW 15 20 8 11 1019.6 1020.0 0.0
16/03:00pm 12.3 8.0 3.5 55 4.0 N 15 19 8 10 1020.1 1020.5 0.0
16/02:30pm 12.5 9.0 3.7 55 4.0 N 11 17 6 9 1020.4 1020.8 0.0
16/02:00pm 12.6 9.1 3.6 54 4.1 NW 11 15 6 8 1020.6 1020.9 0.0
16/01:30pm 12.3 8.6 4.3 58 3.7 NNW 13 20 7 11 1020.9 1021.2 0.0
16/01:00pm 12.5 8.2 3.5 54 4.1 N 15 22 8 12 1021.2 1021.5 0.0
16/12:30pm 12.3 8.5 4.0 57 3.8 N 13 20 7 11 1021.5 1021.9 0.0
16/12:00pm 13.0 10.0 3.9 54 4.2 N 9 17 5 9 1021.7 1022.1 0.0
16/11:30am 12.8 10.2 4.0 55 4.1 N 7 15 4 8 1022.0 1022.4 0.0
16/11:00am 11.8 8.6 3.1 55 3.9 NNW 9 15 5 8 1022.5 1022.9 0.0
16/10:30am 11.6 8.6 4.1 60 3.4 WNW 9 17 5 9 1023.0 1023.3 0.0
16/10:00am 11.6 8.9 3.9 59 3.5 N 7 11 4 6 1023.4 1023.8 0.0
16/09:30am 10.6 7.4 2.9 59 3.4 E 9 13 5 7 1023.4 1023.8 0.0

Other formats

Comma delimited format used in spreadsheet applications
http://www.bom.gov.au/fwo/IDV60801/IDV60801.94852.axf

JavaScript Object Notation format (JSON) in row-major order
http://www.bom.gov.au/fwo/IDV60801/IDV60801.94852.json

Data quality

Most of these data are generated automatically and are frequently updated. Quality checks on data are not normally performed. It is possible for incorrect values to appear. Refer to information at About Latest Weather Observations and please check the disclaimer before using these data.